createdAt,value
2017-11-27T00:02:06.769Z,10.60
2017-11-27T00:05:18.128Z,8.63
2017-11-27T00:08:27.929Z,7.80
2017-11-27T00:11:38.020Z,7.62
2017-11-27T00:14:47.898Z,8.68
2017-11-27T00:17:58.444Z,7.47
2017-11-27T00:21:08.306Z,7.07
2017-11-27T00:24:17.971Z,8.50
2017-11-27T00:27:29.403Z,8.00
2017-11-27T00:30:39.357Z,7.78
2017-11-27T00:33:49.268Z,8.65
2017-11-27T00:36:59.041Z,6.97
2017-11-27T00:40:08.824Z,6.00
2017-11-27T00:43:18.302Z,8.57
2017-11-27T00:46:28.011Z,9.38
2017-11-27T00:49:37.794Z,8.02
2017-11-27T00:52:48.309Z,8.50
2017-11-27T00:55:58.597Z,9.30
2017-11-27T00:59:08.540Z,6.97
2017-11-27T01:02:18.446Z,7.45
2017-11-27T01:05:29.254Z,8.48
2017-11-27T01:08:39.837Z,8.23
2017-11-27T01:11:50.649Z,8.05
2017-11-27T01:15:00.444Z,6.68
2017-11-27T01:18:10.431Z,7.10
2017-11-27T01:21:21.788Z,9.43
2017-11-27T01:24:31.797Z,7.93
2017-11-27T01:27:41.615Z,8.40
2017-11-27T01:30:51.552Z,9.20
2017-11-27T01:34:01.443Z,7.07
2017-11-27T01:37:12.173Z,8.93
2017-11-27T01:40:22.800Z,7.00
2017-11-27T01:43:32.826Z,7.22
2017-11-27T01:46:44.242Z,10.07
2017-11-27T01:49:54.464Z,7.90
2017-11-27T01:53:04.863Z,9.68
2017-11-27T01:56:15.842Z,9.18
2017-11-27T01:59:26.329Z,9.40
2017-11-27T02:02:37.200Z,8.65
2017-11-27T02:05:46.994Z,7.53
2017-11-27T02:08:56.930Z,8.73
2017-11-27T02:12:07.522Z,8.23
2017-11-27T02:15:17.450Z,9.65
2017-11-27T02:18:27.137Z,7.65
2017-11-27T02:21:37.012Z,9.63
2017-11-27T02:24:47.732Z,9.43
2017-11-27T02:27:57.589Z,9.70
2017-11-27T02:31:07.803Z,6.50
2017-11-27T02:34:18.454Z,7.90
2017-11-27T02:37:28.404Z,8.25
2017-11-27T02:40:39.046Z,8.35
2017-11-27T02:43:48.681Z,10.80
2017-11-27T02:46:58.463Z,9.13
2017-11-27T02:50:08.305Z,7.22
2017-11-27T02:53:18.827Z,9.38
2017-11-27T02:56:29.295Z,7.43
2017-11-27T02:59:40.579Z,9.23
2017-11-27T03:02:50.383Z,8.18
2017-11-27T03:06:01.483Z,6.70
2017-11-27T03:09:11.777Z,8.65
2017-11-27T03:12:22.290Z,7.87
2017-11-27T03:15:32.164Z,9.20
2017-11-27T03:18:43.208Z,7.85
2017-11-27T03:21:53.999Z,7.22
2017-11-27T03:25:03.891Z,9.25
2017-11-27T03:28:14.337Z,9.30
2017-11-27T03:31:24.818Z,9.00
2017-11-27T03:34:34.621Z,7.22
2017-11-27T03:37:45.168Z,8.18
2017-11-27T03:40:56.052Z,9.38
2017-11-27T03:44:06.629Z,9.55
2017-11-27T03:47:16.796Z,8.00
2017-11-27T03:50:27.213Z,7.68
2017-11-27T03:53:37.988Z,8.40
2017-11-27T03:56:47.715Z,7.60
2017-11-27T03:59:58.595Z,6.53
2017-11-27T04:03:09.005Z,8.93
2017-11-27T04:06:19.976Z,8.65
2017-11-27T04:09:30.386Z,9.50
2017-11-27T04:12:41.249Z,6.72
2017-11-27T04:15:51.405Z,8.10
2017-11-27T04:19:02.079Z,7.80
2017-11-27T04:22:12.442Z,7.47
2017-11-27T04:25:23.264Z,7.53
2017-11-27T04:28:33.836Z,8.25
2017-11-27T04:31:43.489Z,10.40
2017-11-27T04:34:53.277Z,7.32
2017-11-27T04:38:03.410Z,9.00
2017-11-27T04:41:13.871Z,10.57
2017-11-27T04:44:23.858Z,8.45
2017-11-27T04:47:34.347Z,7.53
2017-11-27T04:50:44.295Z,6.78
2017-11-27T04:53:54.536Z,7.72
2017-11-27T04:57:05.571Z,7.55
2017-11-27T05:00:15.584Z,8.63
2017-11-27T05:03:26.515Z,6.70
2017-11-27T05:06:37.089Z,7.35
2017-11-27T05:09:47.052Z,8.27
2017-11-27T05:12:57.404Z,6.78
2017-11-27T05:16:07.379Z,6.45
2017-11-27T05:19:18.158Z,7.78
2017-11-27T05:22:28.846Z,7.20
2017-11-27T05:25:39.346Z,6.87
2017-11-27T05:28:49.405Z,7.53
2017-11-27T05:31:59.901Z,7.37
2017-11-27T05:35:10.049Z,7.87
2017-11-27T05:38:20.674Z,8.40
2017-11-27T05:41:30.909Z,7.22
2017-11-27T05:44:42.127Z,6.90
2017-11-27T05:47:52.467Z,7.70
2017-11-27T05:51:03.801Z,8.10
2017-11-27T05:54:14.672Z,8.25
2017-11-27T05:57:25.115Z,7.12
2017-11-27T06:00:36.140Z,7.03
2017-11-27T06:03:47.455Z,9.60
2017-11-27T06:06:57.809Z,5.85
2017-11-27T06:10:07.724Z,7.65
2017-11-27T06:13:17.933Z,6.40
2017-11-27T06:16:28.424Z,7.20
2017-11-27T06:19:38.682Z,7.97
2017-11-27T06:22:48.882Z,8.63
2017-11-27T06:25:58.822Z,7.57
2017-11-27T06:29:10.041Z,6.40
2017-11-27T06:32:20.288Z,7.80
2017-11-27T06:35:30.778Z,8.75
2017-11-27T06:38:40.525Z,9.55
2017-11-27T06:41:50.101Z,8.50
2017-11-27T06:45:00.908Z,8.82
2017-11-27T06:48:10.653Z,8.88
2017-11-27T06:51:21.343Z,7.75
2017-11-27T06:54:32.053Z,8.00
2017-11-27T06:57:42.812Z,6.05
2017-11-27T07:00:52.541Z,6.25
2017-11-27T07:04:02.416Z,8.73
2017-11-27T07:07:13.861Z,5.40
2017-11-27T07:10:24.067Z,8.40
2017-11-27T07:13:35.286Z,7.90
2017-11-27T07:16:45.519Z,7.75
2017-11-27T07:19:56.486Z,6.40
2017-11-27T07:23:07.002Z,8.50
2017-11-27T07:26:18.252Z,8.38
2017-11-27T07:29:28.523Z,6.50
2017-11-27T07:32:39.037Z,6.30
2017-11-27T07:35:49.025Z,7.32
2017-11-27T07:39:05.799Z,9.02
2017-11-27T07:42:16.237Z,6.97
2017-11-27T07:45:26.895Z,9.07
2017-11-27T07:48:37.467Z,6.80
2017-11-27T07:51:47.470Z,8.75
2017-11-27T07:54:57.999Z,7.97
2017-11-27T07:58:08.631Z,5.82
2017-11-27T08:01:18.573Z,7.70
2017-11-27T08:04:29.549Z,6.40
2017-11-27T08:07:39.773Z,7.32
2017-11-27T08:10:49.881Z,7.22
2017-11-27T08:14:01.208Z,7.47
2017-11-27T08:17:11.469Z,5.97
2017-11-27T08:20:22.239Z,5.22
2017-11-27T08:23:32.909Z,7.20
2017-11-27T08:26:43.146Z,5.35
2017-11-27T08:29:53.923Z,7.20
2017-11-27T08:33:04.479Z,6.32
2017-11-27T08:36:14.839Z,5.87
2017-11-27T08:39:25.363Z,6.00
2017-11-27T08:42:35.296Z,6.32
2017-11-27T08:45:45.739Z,5.82
2017-11-27T08:48:55.823Z,5.60
2017-11-27T08:52:07.389Z,4.93
2017-11-27T08:55:18.132Z,6.47
2017-11-27T08:58:28.527Z,6.25
2017-11-27T09:01:39.346Z,5.93
2017-11-27T09:04:49.738Z,6.50
2017-11-27T09:08:00.200Z,6.25
2017-11-27T09:11:10.061Z,6.47
2017-11-27T09:14:19.646Z,6.65
2017-11-27T09:17:30.291Z,11.82
2017-11-27T09:20:41.529Z,17.05
2017-11-27T09:23:51.415Z,6.95
2017-11-27T09:27:01.549Z,7.15
2017-11-27T09:30:11.751Z,6.07
2017-11-27T09:33:21.367Z,7.80
2017-11-27T09:36:31.197Z,6.97
2017-11-27T09:39:41.981Z,7.28
2017-11-27T09:42:51.790Z,6.82
2017-11-27T09:46:02.057Z,8.40
2017-11-27T09:49:12.637Z,6.12
2017-11-27T09:52:23.628Z,7.12
2017-11-27T09:55:34.079Z,7.00
2017-11-27T09:58:44.992Z,5.80
2017-11-27T10:01:56.441Z,5.75
2017-11-27T10:05:06.865Z,5.97
2017-11-27T10:08:17.325Z,6.75
2017-11-27T10:11:27.126Z,6.75
2017-11-27T10:14:37.040Z,6.40
2017-11-27T10:17:47.636Z,6.85
2017-11-27T10:20:57.888Z,6.55
2017-11-27T10:24:09.017Z,6.90
2017-11-27T10:27:19.097Z,6.85
2017-11-27T10:30:29.048Z,5.82
2017-11-27T10:33:40.598Z,6.10
2017-11-27T10:36:51.439Z,6.25
2017-11-27T10:40:02.656Z,9.20
2017-11-27T10:43:13.709Z,6.87
2017-11-27T10:46:23.846Z,5.07
2017-11-27T10:49:33.576Z,6.45
2017-11-27T10:52:43.464Z,6.22
2017-11-27T10:55:53.388Z,5.65
2017-11-27T10:59:04.040Z,8.27
2017-11-27T11:02:14.270Z,6.05
2017-11-27T11:05:25.077Z,6.43
2017-11-27T11:08:34.414Z,6.80
2017-11-27T11:11:45.076Z,6.07
2017-11-27T11:14:55.834Z,6.47
2017-11-27T11:18:06.305Z,5.87
2017-11-27T11:21:16.093Z,5.93
2017-11-27T11:24:26.615Z,6.07
2017-11-27T11:27:36.713Z,6.30
2017-11-27T11:30:47.847Z,6.03
2017-11-27T11:33:58.315Z,5.68
2017-11-27T11:37:07.888Z,6.68
2017-11-27T11:40:20.764Z,6.05
2017-11-27T11:43:28.722Z,5.47
2017-11-27T11:46:38.667Z,6.00
2017-11-27T11:49:49.140Z,5.75
2017-11-27T11:52:59.889Z,5.35
2017-11-27T11:56:09.173Z,7.60
2017-11-27T11:59:20.119Z,7.12
2017-11-27T12:02:30.721Z,5.95
2017-11-27T12:05:40.724Z,5.85
2017-11-27T12:08:52.160Z,6.12
2017-11-27T12:12:01.925Z,5.65
2017-11-27T12:15:11.830Z,6.68
2017-11-27T12:18:21.732Z,6.18
2017-11-27T12:21:32.026Z,6.05
2017-11-27T12:24:42.214Z,7.80
2017-11-27T12:27:52.795Z,7.10
2017-11-27T12:31:02.875Z,7.20
2017-11-27T12:34:13.477Z,5.20
2017-11-27T12:37:24.199Z,4.72
2017-11-27T12:40:33.901Z,6.03
2017-11-27T12:43:44.569Z,6.07
2017-11-27T12:46:55.196Z,5.82
2017-11-27T12:50:05.656Z,6.07
2017-11-27T12:53:16.115Z,7.28
2017-11-27T12:56:26.209Z,5.18
2017-11-27T12:59:36.006Z,6.20
2017-11-27T13:02:45.670Z,5.12
2017-11-27T13:05:55.642Z,6.75
2017-11-27T13:09:06.978Z,4.80
2017-11-27T13:12:16.585Z,5.95
2017-11-27T13:15:26.481Z,4.85
2017-11-27T13:18:36.280Z,5.50
2017-11-27T13:21:45.967Z,7.00
2017-11-27T13:24:56.635Z,6.18
2017-11-27T13:28:06.359Z,4.37
2017-11-27T13:31:17.012Z,5.60
2017-11-27T13:34:27.782Z,5.62
2017-11-27T13:37:39.172Z,6.05
2017-11-27T13:40:50.137Z,5.10
2017-11-27T13:43:59.937Z,5.22
2017-11-27T13:47:10.210Z,5.65
2017-11-27T13:50:21.251Z,5.85
2017-11-27T13:53:31.137Z,6.12
2017-11-27T13:56:42.556Z,5.30
2017-11-27T13:59:52.612Z,6.10
2017-11-27T14:03:03.285Z,4.82
2017-11-27T14:06:14.018Z,6.20
2017-11-27T14:09:25.160Z,5.30
2017-11-27T14:12:35.216Z,5.87
2017-11-27T14:15:46.021Z,5.70
2017-11-27T14:18:55.863Z,5.43
2017-11-27T14:22:05.598Z,5.68
2017-11-27T14:25:15.601Z,5.75
2017-11-27T14:28:25.570Z,5.37
2017-11-27T14:31:36.294Z,4.57
2017-11-27T14:34:46.305Z,4.70
2017-11-27T14:37:56.739Z,6.53
2017-11-27T14:41:06.303Z,6.22
2017-11-27T14:44:16.509Z,5.00
2017-11-27T14:47:27.482Z,5.75
2017-11-27T14:50:37.752Z,5.32
2017-11-27T14:53:47.329Z,5.25
2017-11-27T14:56:56.944Z,5.47
2017-11-27T15:00:06.621Z,5.22
2017-11-27T15:03:17.440Z,7.07
2017-11-27T15:06:27.262Z,7.32
2017-11-27T15:09:37.279Z,7.62
2017-11-27T15:12:46.666Z,5.57
2017-11-27T15:15:57.204Z,5.87
2017-11-27T15:19:06.873Z,5.57
2017-11-27T15:22:16.862Z,5.10
2017-11-27T15:25:27.943Z,4.95
2017-11-27T15:28:38.795Z,6.05
2017-11-27T15:31:49.565Z,5.75
2017-11-27T15:34:59.569Z,5.20
2017-11-27T15:38:09.337Z,4.60
2017-11-27T15:41:19.153Z,4.97
2017-11-27T15:44:29.358Z,4.95
2017-11-27T15:47:39.102Z,4.90
2017-11-27T15:50:49.453Z,6.20
2017-11-27T15:53:59.489Z,5.68
2017-11-27T15:57:10.014Z,5.00
2017-11-27T16:00:20.577Z,4.37
2017-11-27T16:03:30.622Z,5.75
2017-11-27T16:06:40.160Z,5.12
2017-11-27T16:09:49.743Z,6.43
2017-11-27T16:12:59.100Z,6.90
2017-11-27T16:16:08.918Z,8.40
2017-11-27T16:19:18.531Z,9.45
2017-11-27T16:22:29.443Z,7.93
2017-11-27T16:25:39.883Z,10.40
2017-11-27T16:28:49.892Z,7.70
2017-11-27T16:31:59.687Z,9.10
2017-11-27T16:35:10.263Z,6.47
2017-11-27T16:38:20.421Z,5.00
2017-11-27T16:41:30.635Z,6.43
2017-11-27T16:44:40.974Z,7.05
2017-11-27T16:47:50.916Z,7.78
2017-11-27T16:51:00.789Z,6.68
2017-11-27T16:54:11.323Z,4.70
2017-11-27T16:57:22.304Z,6.18
2017-11-27T17:00:32.195Z,6.93
2017-11-27T17:03:42.455Z,4.68
2017-11-27T17:06:52.905Z,5.00
2017-11-27T17:10:03.883Z,5.85
2017-11-27T17:13:13.806Z,4.62
2017-11-27T17:16:24.694Z,9.88
2017-11-27T17:19:34.190Z,7.68
2017-11-27T17:22:44.057Z,5.30
2017-11-27T17:25:53.656Z,5.20
2017-11-27T17:29:03.439Z,4.85
2017-11-27T17:32:13.013Z,5.22
2017-11-27T17:35:23.275Z,4.82
2017-11-27T17:38:33.716Z,6.15
2017-11-27T17:41:44.225Z,6.00
2017-11-27T17:44:54.021Z,5.32
2017-11-27T17:48:03.693Z,5.70
2017-11-27T17:51:14.422Z,5.32
2017-11-27T17:54:24.841Z,5.53
2017-11-27T17:57:34.805Z,7.72
2017-11-27T18:00:44.516Z,5.10
2017-11-27T18:03:55.265Z,7.37
2017-11-27T18:07:05.266Z,4.87
2017-11-27T18:10:15.783Z,9.70
2017-11-27T18:13:25.764Z,7.43
2017-11-27T18:16:36.271Z,5.75
2017-11-27T18:19:46.149Z,6.50
2017-11-27T18:22:55.762Z,5.68
2017-11-27T18:26:05.504Z,3.90
2017-11-27T18:29:15.998Z,4.20
2017-11-27T18:32:26.006Z,6.10
2017-11-27T18:35:35.716Z,6.32
2017-11-27T18:38:45.322Z,5.75
2017-11-27T18:41:55.026Z,6.37
2017-11-27T18:45:04.505Z,5.15
2017-11-27T18:48:14.301Z,5.22
2017-11-27T18:51:24.462Z,4.87
2017-11-27T18:54:34.563Z,5.87
2017-11-27T18:57:44.567Z,5.57
2017-11-27T19:00:54.117Z,5.45
2017-11-27T19:04:03.855Z,5.80
2017-11-27T19:07:14.232Z,5.20
2017-11-27T19:10:24.284Z,4.80
2017-11-27T19:13:34.576Z,5.15
2017-11-27T19:16:44.479Z,5.28
2017-11-27T19:19:55.124Z,9.50
2017-11-27T19:23:05.044Z,6.70
2017-11-27T19:26:14.691Z,4.93
2017-11-27T19:29:24.511Z,6.05
2017-11-27T19:32:34.265Z,6.43
2017-11-27T19:35:44.244Z,4.50
2017-11-27T19:38:53.601Z,5.03
2017-11-27T19:42:03.140Z,4.78
2017-11-27T19:45:13.587Z,5.75
2017-11-27T19:48:23.293Z,4.93
2017-11-27T19:51:32.933Z,5.25
2017-11-27T19:54:42.649Z,5.75
2017-11-27T19:57:53.100Z,4.85
2017-11-27T20:01:02.987Z,4.50
2017-11-27T20:04:12.909Z,4.65
2017-11-27T20:07:22.279Z,5.22
2017-11-27T20:10:32.280Z,4.43
2017-11-27T20:13:42.799Z,4.00
2017-11-27T20:16:52.695Z,4.60
2017-11-27T20:20:02.512Z,4.43
2017-11-27T20:23:12.289Z,4.70
2017-11-27T20:26:22.654Z,4.70
2017-11-27T20:29:32.907Z,4.40
2017-11-27T20:32:42.608Z,4.35
2017-11-27T20:35:51.889Z,5.15
2017-11-27T20:39:02.561Z,4.43
2017-11-27T20:42:12.337Z,4.12
2017-11-27T20:45:22.857Z,5.20
2017-11-27T20:48:32.858Z,4.60
2017-11-27T20:51:42.557Z,4.30
2017-11-27T20:54:52.291Z,4.32
2017-11-27T20:58:01.843Z,4.60
2017-11-27T21:01:12.519Z,3.95
2017-11-27T21:04:22.055Z,4.65
2017-11-27T21:07:32.744Z,4.18
2017-11-27T21:10:42.630Z,5.05
2017-11-27T21:13:52.408Z,5.95
2017-11-27T21:17:02.301Z,3.87
2017-11-27T21:20:12.675Z,4.45
2017-11-27T21:23:22.297Z,4.65
2017-11-27T21:26:32.053Z,4.43
2017-11-27T21:29:42.586Z,4.15
2017-11-27T21:32:53.000Z,4.20
2017-11-27T21:36:03.925Z,4.55
2017-11-27T21:39:13.415Z,5.00
2017-11-27T21:42:24.617Z,4.20
2017-11-27T21:45:35.118Z,4.85
2017-11-27T21:48:44.907Z,4.35
2017-11-27T21:51:54.694Z,4.50
2017-11-27T21:55:05.091Z,4.30
2017-11-27T21:58:14.619Z,9.68
2017-11-27T22:01:24.683Z,7.72
2017-11-27T22:04:34.938Z,4.80
2017-11-27T22:07:46.332Z,5.97
2017-11-27T22:10:57.764Z,3.90
2017-11-27T22:14:08.657Z,4.75
2017-11-27T22:17:18.413Z,4.30
2017-11-27T22:20:29.390Z,4.30
2017-11-27T22:23:39.816Z,3.97
2017-11-27T22:26:50.200Z,4.28
2017-11-27T22:30:00.861Z,3.87
2017-11-27T22:33:10.864Z,4.05
2017-11-27T22:36:20.256Z,4.20
2017-11-27T22:39:30.183Z,4.55
2017-11-27T22:42:39.726Z,4.90
2017-11-27T22:45:49.785Z,4.28
2017-11-27T22:48:59.662Z,4.87
2017-11-27T22:52:09.098Z,4.62
2017-11-27T22:55:18.664Z,4.10
2017-11-27T22:58:28.530Z,3.90
2017-11-27T23:01:39.043Z,4.00
2017-11-27T23:04:50.077Z,4.70
2017-11-27T23:08:00.624Z,4.28
2017-11-27T23:11:10.756Z,4.68
2017-11-27T23:14:20.383Z,4.53
2017-11-27T23:17:30.008Z,4.90
2017-11-27T23:20:40.213Z,4.30
2017-11-27T23:23:50.970Z,4.70
2017-11-27T23:27:01.020Z,4.22
2017-11-27T23:30:10.564Z,4.70
2017-11-27T23:33:21.548Z,3.95
2017-11-27T23:36:31.188Z,4.80
2017-11-27T23:39:40.733Z,4.50
2017-11-27T23:42:51.287Z,4.47
2017-11-27T23:46:00.990Z,3.85
2017-11-27T23:49:10.604Z,4.45
2017-11-27T23:52:21.329Z,4.40
2017-11-27T23:55:31.260Z,3.75
2017-11-27T23:58:40.905Z,4.75
